sensor_id;sensor_type;location;lat;lon;timestamp;P1;durP1;ratioP1;P2;durP2;ratioP2
20078;SDS011;10199;48.850;8.924;2023-11-19T00:00:22;1.93;;;1.80;;
20078;SDS011;10199;48.850;8.924;2023-11-19T00:02:51;4.87;;;2.27;;
20078;SDS011;10199;48.850;8.924;2023-11-19T00:05:19;1.97;;;1.77;;
20078;SDS011;10199;48.850;8.924;2023-11-19T00:07:48;1.60;;;1.50;;
20078;SDS011;10199;48.850;8.924;2023-11-19T00:10:16;1.63;;;1.50;;
20078;SDS011;10199;48.850;8.924;2023-11-19T00:12:48;1.83;;;1.40;;
20078;SDS011;10199;48.850;8.924;2023-11-19T00:15:17;1.30;;;1.20;;
20078;SDS011;10199;48.850;8.924;2023-11-19T00:17:46;1.40;;;1.00;;
20078;SDS011;10199;48.850;8.924;2023-11-19T00:20:17;0.80;;;0.80;;
20078;SDS011;10199;48.850;8.924;2023-11-19T00:22:46;0.57;;;0.53;;
20078;SDS011;10199;48.850;8.924;2023-11-19T00:25:15;0.60;;;0.40;;
20078;SDS011;10199;48.850;8.924;2023-11-19T00:27:43;0.60;;;0.40;;
20078;SDS011;10199;48.850;8.924;2023-11-19T00:30:12;0.50;;;0.50;;
20078;SDS011;10199;48.850;8.924;2023-11-19T00:32:41;0.97;;;0.30;;
20078;SDS011;10199;48.850;8.924;2023-11-19T00:35:09;0.40;;;0.30;;
20078;SDS011;10199;48.850;8.924;2023-11-19T00:37:39;0.50;;;0.40;;
20078;SDS011;10199;48.850;8.924;2023-11-19T00:40:09;0.77;;;0.33;;
20078;SDS011;10199;48.850;8.924;2023-11-19T00:42:38;0.40;;;0.30;;
20078;SDS011;10199;48.850;8.924;2023-11-19T00:45:06;0.43;;;0.33;;
20078;SDS011;10199;48.850;8.924;2023-11-19T00:47:36;0.50;;;0.30;;
20078;SDS011;10199;48.850;8.924;2023-11-19T00:50:05;0.50;;;0.40;;
20078;SDS011;10199;48.850;8.924;2023-11-19T00:52:36;0.47;;;0.30;;
20078;SDS011;10199;48.850;8.924;2023-11-19T00:55:06;0.50;;;0.23;;
20078;SDS011;10199;48.850;8.924;2023-11-19T00:57:34;1.23;;;0.40;;
20078;SDS011;10199;48.850;8.924;2023-11-19T01:00:03;0.53;;;0.30;;
20078;SDS011;10199;48.850;8.924;2023-11-19T01:02:37;0.63;;;0.30;;
20078;SDS011;10199;48.850;8.924;2023-11-19T01:05:07;0.30;;;0.10;;
20078;SDS011;10199;48.850;8.924;2023-11-19T01:07:36;0.73;;;0.30;;
20078;SDS011;10199;48.850;8.924;2023-11-19T01:10:07;0.50;;;0.30;;
20078;SDS011;10199;48.850;8.924;2023-11-19T01:12:35;0.87;;;0.27;;
20078;SDS011;10199;48.850;8.924;2023-11-19T01:15:05;0.20;;;0.10;;
20078;SDS011;10199;48.850;8.924;2023-11-19T01:17:33;0.20;;;0.13;;
20078;SDS011;10199;48.850;8.924;2023-11-19T01:20:01;1.27;;;0.20;;
20078;SDS011;10199;48.850;8.924;2023-11-19T01:22:32;0.37;;;0.20;;
20078;SDS011;10199;48.850;8.924;2023-11-19T01:25:01;1.13;;;0.20;;
20078;SDS011;10199;48.850;8.924;2023-11-19T01:27:31;0.40;;;0.20;;
20078;SDS011;10199;48.850;8.924;2023-11-19T01:30:01;0.40;;;0.20;;
20078;SDS011;10199;48.850;8.924;2023-11-19T01:32:30;0.70;;;0.10;;
20078;SDS011;10199;48.850;8.924;2023-11-19T01:34:58;0.80;;;0.10;;
20078;SDS011;10199;48.850;8.924;2023-11-19T01:37:26;0.30;;;0.20;;
20078;SDS011;10199;48.850;8.924;2023-11-19T01:39:54;0.70;;;0.20;;
20078;SDS011;10199;48.850;8.924;2023-11-19T01:42:24;0.30;;;0.20;;
20078;SDS011;10199;48.850;8.924;2023-11-19T01:44:58;0.27;;;0.13;;
20078;SDS011;10199;48.850;8.924;2023-11-19T01:47:27;0.40;;;0.30;;
20078;SDS011;10199;48.850;8.924;2023-11-19T01:49:58;1.50;;;0.23;;
20078;SDS011;10199;48.850;8.924;2023-11-19T01:52:26;1.80;;;0.20;;
20078;SDS011;10199;48.850;8.924;2023-11-19T01:54:54;0.50;;;0.20;;
20078;SDS011;10199;48.850;8.924;2023-11-19T01:57:23;0.27;;;0.17;;
20078;SDS011;10199;48.850;8.924;2023-11-19T01:59:52;1.07;;;0.30;;
20078;SDS011;10199;48.850;8.924;2023-11-19T02:02:22;0.80;;;0.20;;
20078;SDS011;10199;48.850;8.924;2023-11-19T02:04:50;0.20;;;0.13;;
20078;SDS011;10199;48.850;8.924;2023-11-19T02:07:20;0.20;;;0.20;;
20078;SDS011;10199;48.850;8.924;2023-11-19T02:09:48;0.60;;;0.10;;
20078;SDS011;10199;48.850;8.924;2023-11-19T02:12:17;0.30;;;0.10;;
20078;SDS011;10199;48.850;8.924;2023-11-19T02:14:46;1.07;;;0.20;;
20078;SDS011;10199;48.850;8.924;2023-11-19T02:17:28;0.27;;;0.13;;
20078;SDS011;10199;48.850;8.924;2023-11-19T02:19:58;0.30;;;0.20;;
20078;SDS011;10199;48.850;8.924;2023-11-19T02:22:27;0.20;;;0.10;;
20078;SDS011;10199;48.850;8.924;2023-11-19T02:24:57;0.30;;;0.10;;
20078;SDS011;10199;48.850;8.924;2023-11-19T02:27:30;0.30;;;0.10;;
20078;SDS011;10199;48.850;8.924;2023-11-19T02:30:05;0.20;;;0.10;;
20078;SDS011;10199;48.850;8.924;2023-11-19T02:32:35;0.57;;;0.00;;
20078;SDS011;10199;48.850;8.924;2023-11-19T02:35:06;0.60;;;0.10;;
20078;SDS011;10199;48.850;8.924;2023-11-19T02:37:36;1.57;;;0.20;;
20078;SDS011;10199;48.850;8.924;2023-11-19T02:40:05;0.47;;;0.20;;
20078;SDS011;10199;48.850;8.924;2023-11-19T02:42:37;0.20;;;0.10;;
20078;SDS011;10199;48.850;8.924;2023-11-19T02:45:05;0.20;;;0.17;;
20078;SDS011;10199;48.850;8.924;2023-11-19T02:47:34;0.30;;;0.20;;
20078;SDS011;10199;48.850;8.924;2023-11-19T02:50:03;0.47;;;0.10;;
20078;SDS011;10199;48.850;8.924;2023-11-19T02:52:33;0.20;;;0.10;;
20078;SDS011;10199;48.850;8.924;2023-11-19T02:55:04;0.53;;;0.17;;
20078;SDS011;10199;48.850;8.924;2023-11-19T02:57:37;0.27;;;0.00;;
20078;SDS011;10199;48.850;8.924;2023-11-19T03:00:07;0.83;;;0.03;;
20078;SDS011;10199;48.850;8.924;2023-11-19T03:02:39;0.20;;;0.10;;
20078;SDS011;10199;48.850;8.924;2023-11-19T03:05:12;0.60;;;0.10;;
20078;SDS011;10199;48.850;8.924;2023-11-19T03:07:41;0.20;;;0.10;;
20078;SDS011;10199;48.850;8.924;2023-11-19T03:10:13;0.33;;;0.10;;
20078;SDS011;10199;48.850;8.924;2023-11-19T03:12:43;0.27;;;0.10;;
20078;SDS011;10199;48.850;8.924;2023-11-19T03:15:11;0.20;;;0.10;;
20078;SDS011;10199;48.850;8.924;2023-11-19T03:17:40;0.30;;;0.10;;
20078;SDS011;10199;48.850;8.924;2023-11-19T03:20:10;0.30;;;0.10;;
20078;SDS011;10199;48.850;8.924;2023-11-19T03:22:41;0.30;;;0.10;;
20078;SDS011;10199;48.850;8.924;2023-11-19T03:25:10;1.03;;;0.20;;
20078;SDS011;10199;48.850;8.924;2023-11-19T03:27:39;2.47;;;0.20;;
20078;SDS011;10199;48.850;8.924;2023-11-19T03:30:10;0.20;;;0.10;;
20078;SDS011;10199;48.850;8.924;2023-11-19T03:32:39;0.30;;;0.13;;
20078;SDS011;10199;48.850;8.924;2023-11-19T03:35:07;1.37;;;0.20;;
20078;SDS011;10199;48.850;8.924;2023-11-19T03:37:36;0.70;;;0.20;;
20078;SDS011;10199;48.850;8.924;2023-11-19T03:40:04;0.33;;;0.10;;
20078;SDS011;10199;48.850;8.924;2023-11-19T03:42:33;1.03;;;0.30;;
20078;SDS011;10199;48.850;8.924;2023-11-19T03:45:01;1.60;;;0.10;;
20078;SDS011;10199;48.850;8.924;2023-11-19T03:47:31;0.27;;;0.10;;
20078;SDS011;10199;48.850;8.924;2023-11-19T03:49:59;1.13;;;0.10;;
20078;SDS011;10199;48.850;8.924;2023-11-19T03:52:28;0.20;;;0.10;;
20078;SDS011;10199;48.850;8.924;2023-11-19T03:54:56;0.93;;;0.10;;
20078;SDS011;10199;48.850;8.924;2023-11-19T03:57:24;0.37;;;0.20;;
20078;SDS011;10199;48.850;8.924;2023-11-19T03:59:52;0.20;;;0.10;;
20078;SDS011;10199;48.850;8.924;2023-11-19T04:02:23;0.30;;;0.10;;
20078;SDS011;10199;48.850;8.924;2023-11-19T04:04:55;1.60;;;0.10;;
20078;SDS011;10199;48.850;8.924;2023-11-19T04:07:24;0.70;;;0.20;;
20078;SDS011;10199;48.850;8.924;2023-11-19T04:09:52;0.43;;;0.20;;
20078;SDS011;10199;48.850;8.924;2023-11-19T04:12:20;0.27;;;0.10;;
20078;SDS011;10199;48.850;8.924;2023-11-19T04:14:48;0.40;;;0.10;;
20078;SDS011;10199;48.850;8.924;2023-11-19T04:17:26;0.30;;;0.10;;
20078;SDS011;10199;48.850;8.924;2023-11-19T04:19:55;0.60;;;0.13;;
20078;SDS011;10199;48.850;8.924;2023-11-19T04:22:24;0.40;;;0.10;;
20078;SDS011;10199;48.850;8.924;2023-11-19T04:24:52;0.20;;;0.00;;
20078;SDS011;10199;48.850;8.924;2023-11-19T04:27:22;0.30;;;0.17;;
20078;SDS011;10199;48.850;8.924;2023-11-19T04:29:50;0.20;;;0.00;;
20078;SDS011;10199;48.850;8.924;2023-11-19T04:32:18;0.73;;;0.33;;
20078;SDS011;10199;48.850;8.924;2023-11-19T04:34:48;0.90;;;0.10;;
20078;SDS011;10199;48.850;8.924;2023-11-19T04:37:18;0.20;;;0.10;;
20078;SDS011;10199;48.850;8.924;2023-11-19T04:39:46;0.20;;;0.10;;
20078;SDS011;10199;48.850;8.924;2023-11-19T04:42:14;0.20;;;0.00;;
20078;SDS011;10199;48.850;8.924;2023-11-19T04:44:43;0.30;;;0.10;;
20078;SDS011;10199;48.850;8.924;2023-11-19T04:47:11;0.20;;;0.20;;
20078;SDS011;10199;48.850;8.924;2023-11-19T04:49:40;0.30;;;0.10;;
20078;SDS011;10199;48.850;8.924;2023-11-19T04:52:10;0.30;;;0.10;;
20078;SDS011;10199;48.850;8.924;2023-11-19T04:54:41;0.30;;;0.10;;
20078;SDS011;10199;48.850;8.924;2023-11-19T04:57:10;0.27;;;0.20;;
20078;SDS011;10199;48.850;8.924;2023-11-19T04:59:38;0.20;;;0.20;;
20078;SDS011;10199;48.850;8.924;2023-11-19T05:02:08;0.47;;;0.10;;
20078;SDS011;10199;48.850;8.924;2023-11-19T05:04:36;0.30;;;0.10;;
20078;SDS011;10199;48.850;8.924;2023-11-19T05:07:04;0.20;;;0.10;;
20078;SDS011;10199;48.850;8.924;2023-11-19T05:09:33;0.87;;;0.20;;
20078;SDS011;10199;48.850;8.924;2023-11-19T05:12:03;0.30;;;0.10;;
20078;SDS011;10199;48.850;8.924;2023-11-19T05:14:31;0.70;;;0.30;;
20078;SDS011;10199;48.850;8.924;2023-11-19T05:16:59;0.20;;;0.20;;
20078;SDS011;10199;48.850;8.924;2023-11-19T05:19:27;0.37;;;0.20;;
20078;SDS011;10199;48.850;8.924;2023-11-19T05:21:55;0.20;;;0.10;;
20078;SDS011;10199;48.850;8.924;2023-11-19T05:24:23;0.67;;;0.30;;
20078;SDS011;10199;48.850;8.924;2023-11-19T05:26:51;0.20;;;0.10;;
20078;SDS011;10199;48.850;8.924;2023-11-19T05:29:21;0.37;;;0.20;;
20078;SDS011;10199;48.850;8.924;2023-11-19T05:31:49;0.30;;;0.30;;
20078;SDS011;10199;48.850;8.924;2023-11-19T05:34:17;0.30;;;0.27;;
20078;SDS011;10199;48.850;8.924;2023-11-19T05:36:45;0.57;;;0.30;;
20078;SDS011;10199;48.850;8.924;2023-11-19T05:39:13;0.53;;;0.20;;
20078;SDS011;10199;48.850;8.924;2023-11-19T05:41:41;2.57;;;0.33;;
20078;SDS011;10199;48.850;8.924;2023-11-19T05:44:09;1.27;;;0.30;;
20078;SDS011;10199;48.850;8.924;2023-11-19T05:46:38;1.70;;;0.30;;
20078;SDS011;10199;48.850;8.924;2023-11-19T05:49:09;0.70;;;0.40;;
20078;SDS011;10199;48.850;8.924;2023-11-19T05:51:38;0.47;;;0.20;;
20078;SDS011;10199;48.850;8.924;2023-11-19T05:54:07;0.97;;;0.33;;
20078;SDS011;10199;48.850;8.924;2023-11-19T05:56:36;0.97;;;0.60;;
20078;SDS011;10199;48.850;8.924;2023-11-19T05:59:04;2.27;;;0.90;;
20078;SDS011;10199;48.850;8.924;2023-11-19T06:01:43;0.80;;;0.40;;
20078;SDS011;10199;48.850;8.924;2023-11-19T06:04:11;0.77;;;0.40;;
20078;SDS011;10199;48.850;8.924;2023-11-19T06:06:39;1.07;;;0.30;;
20078;SDS011;10199;48.850;8.924;2023-11-19T06:09:07;0.63;;;0.30;;
20078;SDS011;10199;48.850;8.924;2023-11-19T06:11:39;1.43;;;0.20;;
20078;SDS011;10199;48.850;8.924;2023-11-19T06:14:07;0.70;;;0.20;;
20078;SDS011;10199;48.850;8.924;2023-11-19T06:16:35;1.80;;;0.60;;
20078;SDS011;10199;48.850;8.924;2023-11-19T06:19:07;0.70;;;0.30;;
20078;SDS011;10199;48.850;8.924;2023-11-19T06:21:36;0.40;;;0.30;;
20078;SDS011;10199;48.850;8.924;2023-11-19T06:24:04;0.53;;;0.37;;
20078;SDS011;10199;48.850;8.924;2023-11-19T06:26:33;0.70;;;0.30;;
20078;SDS011;10199;48.850;8.924;2023-11-19T06:29:01;0.47;;;0.20;;
20078;SDS011;10199;48.850;8.924;2023-11-19T06:31:29;0.30;;;0.20;;
20078;SDS011;10199;48.850;8.924;2023-11-19T06:33:57;1.13;;;0.40;;
20078;SDS011;10199;48.850;8.924;2023-11-19T06:36:27;0.93;;;0.20;;
20078;SDS011;10199;48.850;8.924;2023-11-19T06:38:55;0.20;;;0.10;;
20078;SDS011;10199;48.850;8.924;2023-11-19T06:41:23;0.20;;;0.10;;
20078;SDS011;10199;48.850;8.924;2023-11-19T06:43:51;1.13;;;0.20;;
20078;SDS011;10199;48.850;8.924;2023-11-19T06:46:19;1.37;;;1.27;;
20078;SDS011;10199;48.850;8.924;2023-11-19T06:48:48;1.47;;;0.40;;
20078;SDS011;10199;48.850;8.924;2023-11-19T06:51:16;0.67;;;0.40;;
20078;SDS011;10199;48.850;8.924;2023-11-19T06:53:45;1.03;;;0.93;;
20078;SDS011;10199;48.850;8.924;2023-11-19T06:56:20;1.23;;;1.03;;
20078;SDS011;10199;48.850;8.924;2023-11-19T06:58:49;0.80;;;0.30;;
20078;SDS011;10199;48.850;8.924;2023-11-19T07:01:17;0.90;;;0.40;;
20078;SDS011;10199;48.850;8.924;2023-11-19T07:03:45;1.33;;;0.67;;
20078;SDS011;10199;48.850;8.924;2023-11-19T07:06:14;0.80;;;0.60;;
20078;SDS011;10199;48.850;8.924;2023-11-19T07:08:42;1.10;;;0.40;;
20078;SDS011;10199;48.850;8.924;2023-11-19T07:11:13;0.87;;;0.60;;
20078;SDS011;10199;48.850;8.924;2023-11-19T07:13:43;1.03;;;0.80;;
20078;SDS011;10199;48.850;8.924;2023-11-19T07:16:13;0.50;;;0.50;;
20078;SDS011;10199;48.850;8.924;2023-11-19T07:18:42;1.13;;;0.60;;
20078;SDS011;10199;48.850;8.924;2023-11-19T07:21:10;1.00;;;0.70;;
20078;SDS011;10199;48.850;8.924;2023-11-19T07:23:38;1.63;;;0.70;;
20078;SDS011;10199;48.850;8.924;2023-11-19T07:26:06;0.90;;;0.90;;
20078;SDS011;10199;48.850;8.924;2023-11-19T07:28:37;0.80;;;0.80;;
20078;SDS011;10199;48.850;8.924;2023-11-19T07:31:06;1.60;;;0.97;;
20078;SDS011;10199;48.850;8.924;2023-11-19T07:33:35;1.37;;;1.00;;
20078;SDS011;10199;48.850;8.924;2023-11-19T07:36:03;1.53;;;0.80;;
20078;SDS011;10199;48.850;8.924;2023-11-19T07:38:32;0.70;;;0.70;;
20078;SDS011;10199;48.850;8.924;2023-11-19T07:41:00;0.70;;;0.70;;
20078;SDS011;10199;48.850;8.924;2023-11-19T07:43:28;1.97;;;1.13;;
20078;SDS011;10199;48.850;8.924;2023-11-19T07:45:57;2.17;;;1.40;;
20078;SDS011;10199;48.850;8.924;2023-11-19T07:48:26;1.10;;;0.90;;
20078;SDS011;10199;48.850;8.924;2023-11-19T07:50:54;3.50;;;0.90;;
20078;SDS011;10199;48.850;8.924;2023-11-19T07:53:22;0.80;;;0.80;;
20078;SDS011;10199;48.850;8.924;2023-11-19T07:55:50;0.80;;;0.70;;
20078;SDS011;10199;48.850;8.924;2023-11-19T07:58:18;2.20;;;1.20;;
20078;SDS011;10199;48.850;8.924;2023-11-19T08:00:47;0.80;;;0.70;;
20078;SDS011;10199;48.850;8.924;2023-11-19T08:03:16;2.00;;;0.60;;
20078;SDS011;10199;48.850;8.924;2023-11-19T08:05:45;0.70;;;0.50;;
20078;SDS011;10199;48.850;8.924;2023-11-19T08:08:13;0.63;;;0.53;;
20078;SDS011;10199;48.850;8.924;2023-11-19T08:10:41;0.70;;;0.50;;
20078;SDS011;10199;48.850;8.924;2023-11-19T08:13:11;1.47;;;0.60;;
20078;SDS011;10199;48.850;8.924;2023-11-19T08:15:39;2.60;;;0.70;;
20078;SDS011;10199;48.850;8.924;2023-11-19T08:18:07;1.43;;;0.60;;
20078;SDS011;10199;48.850;8.924;2023-11-19T08:20:37;1.30;;;0.60;;
20078;SDS011;10199;48.850;8.924;2023-11-19T08:23:05;0.70;;;0.30;;
20078;SDS011;10199;48.850;8.924;2023-11-19T08:25:33;0.67;;;0.60;;
20078;SDS011;10199;48.850;8.924;2023-11-19T08:28:01;1.20;;;0.50;;
20078;SDS011;10199;48.850;8.924;2023-11-19T08:30:30;1.60;;;0.50;;
20078;SDS011;10199;48.850;8.924;2023-11-19T08:32:58;1.40;;;0.73;;
20078;SDS011;10199;48.850;8.924;2023-11-19T08:35:29;0.40;;;0.30;;
20078;SDS011;10199;48.850;8.924;2023-11-19T08:37:58;0.47;;;0.40;;
20078;SDS011;10199;48.850;8.924;2023-11-19T08:40:26;4.43;;;0.60;;
20078;SDS011;10199;48.850;8.924;2023-11-19T08:42:55;1.43;;;0.53;;
20078;SDS011;10199;48.850;8.924;2023-11-19T08:45:23;0.83;;;0.67;;
20078;SDS011;10199;48.850;8.924;2023-11-19T08:47:51;1.53;;;0.33;;
20078;SDS011;10199;48.850;8.924;2023-11-19T08:50:19;1.20;;;0.50;;
20078;SDS011;10199;48.850;8.924;2023-11-19T08:52:47;0.83;;;0.40;;
20078;SDS011;10199;48.850;8.924;2023-11-19T08:55:17;0.80;;;0.43;;
20078;SDS011;10199;48.850;8.924;2023-11-19T08:57:45;1.23;;;0.43;;
20078;SDS011;10199;48.850;8.924;2023-11-19T09:00:13;1.07;;;0.50;;
20078;SDS011;10199;48.850;8.924;2023-11-19T09:02:41;0.73;;;0.40;;
20078;SDS011;10199;48.850;8.924;2023-11-19T09:05:10;0.90;;;0.40;;
20078;SDS011;10199;48.850;8.924;2023-11-19T09:07:39;0.77;;;0.50;;
20078;SDS011;10199;48.850;8.924;2023-11-19T09:10:07;1.40;;;0.30;;
20078;SDS011;10199;48.850;8.924;2023-11-19T09:12:38;4.07;;;0.50;;
20078;SDS011;10199;48.850;8.924;2023-11-19T09:15:06;2.20;;;0.60;;
20078;SDS011;10199;48.850;8.924;2023-11-19T09:17:37;2.53;;;0.60;;
20078;SDS011;10199;48.850;8.924;2023-11-19T09:20:05;1.53;;;0.50;;
20078;SDS011;10199;48.850;8.924;2023-11-19T09:22:34;2.67;;;0.60;;
20078;SDS011;10199;48.850;8.924;2023-11-19T09:25:03;0.60;;;0.30;;
20078;SDS011;10199;48.850;8.924;2023-11-19T09:27:31;1.40;;;0.30;;
20078;SDS011;10199;48.850;8.924;2023-11-19T09:30:01;1.30;;;0.40;;
20078;SDS011;10199;48.850;8.924;2023-11-19T09:32:30;0.53;;;0.20;;
20078;SDS011;10199;48.850;8.924;2023-11-19T09:34:58;1.43;;;0.30;;
20078;SDS011;10199;48.850;8.924;2023-11-19T09:37:27;1.37;;;0.60;;
20078;SDS011;10199;48.850;8.924;2023-11-19T09:39:55;0.40;;;0.30;;
20078;SDS011;10199;48.850;8.924;2023-11-19T09:42:23;1.30;;;0.50;;
20078;SDS011;10199;48.850;8.924;2023-11-19T09:44:52;1.50;;;0.60;;
20078;SDS011;10199;48.850;8.924;2023-11-19T09:47:23;1.77;;;0.60;;
20078;SDS011;10199;48.850;8.924;2023-11-19T09:49:54;0.73;;;0.30;;
20078;SDS011;10199;48.850;8.924;2023-11-19T09:52:23;0.47;;;0.33;;
20078;SDS011;10199;48.850;8.924;2023-11-19T09:54:51;1.37;;;0.77;;
20078;SDS011;10199;48.850;8.924;2023-11-19T09:57:20;1.00;;;0.40;;
20078;SDS011;10199;48.850;8.924;2023-11-19T09:59:48;0.63;;;0.20;;
20078;SDS011;10199;48.850;8.924;2023-11-19T10:02:17;2.90;;;0.33;;
20078;SDS011;10199;48.850;8.924;2023-11-19T10:04:47;1.03;;;0.30;;
20078;SDS011;10199;48.850;8.924;2023-11-19T10:07:17;0.43;;;0.40;;
20078;SDS011;10199;48.850;8.924;2023-11-19T10:09:46;1.37;;;0.50;;
20078;SDS011;10199;48.850;8.924;2023-11-19T10:12:14;0.90;;;0.30;;
20078;SDS011;10199;48.850;8.924;2023-11-19T10:14:43;1.17;;;0.40;;
20078;SDS011;10199;48.850;8.924;2023-11-19T10:17:13;0.53;;;0.30;;
20078;SDS011;10199;48.850;8.924;2023-11-19T10:19:41;0.63;;;0.30;;
20078;SDS011;10199;48.850;8.924;2023-11-19T10:22:10;0.47;;;0.37;;
20078;SDS011;10199;48.850;8.924;2023-11-19T10:24:41;2.00;;;0.43;;
20078;SDS011;10199;48.850;8.924;2023-11-19T10:27:09;1.43;;;0.50;;
20078;SDS011;10199;48.850;8.924;2023-11-19T10:29:37;0.97;;;0.50;;
20078;SDS011;10199;48.850;8.924;2023-11-19T10:32:05;0.87;;;0.33;;
20078;SDS011;10199;48.850;8.924;2023-11-19T10:34:33;1.40;;;0.43;;
20078;SDS011;10199;48.850;8.924;2023-11-19T10:37:04;0.87;;;0.40;;
20078;SDS011;10199;48.850;8.924;2023-11-19T10:39:39;2.23;;;0.40;;
20078;SDS011;10199;48.850;8.924;2023-11-19T10:42:21;0.90;;;0.50;;
20078;SDS011;10199;48.850;8.924;2023-11-19T10:44:49;0.80;;;0.27;;
20078;SDS011;10199;48.850;8.924;2023-11-19T10:47:18;0.60;;;0.30;;
20078;SDS011;10199;48.850;8.924;2023-11-19T10:50:03;1.37;;;0.40;;
20078;SDS011;10199;48.850;8.924;2023-11-19T10:52:32;0.80;;;0.40;;
20078;SDS011;10199;48.850;8.924;2023-11-19T10:55:03;0.70;;;0.30;;
20078;SDS011;10199;48.850;8.924;2023-11-19T10:57:36;1.33;;;0.60;;
20078;SDS011;10199;48.850;8.924;2023-11-19T11:00:07;1.70;;;0.47;;
20078;SDS011;10199;48.850;8.924;2023-11-19T11:02:40;1.23;;;0.70;;
20078;SDS011;10199;48.850;8.924;2023-11-19T11:05:09;1.50;;;0.40;;
20078;SDS011;10199;48.850;8.924;2023-11-19T11:07:39;0.93;;;0.40;;
20078;SDS011;10199;48.850;8.924;2023-11-19T11:10:09;1.10;;;0.40;;
20078;SDS011;10199;48.850;8.924;2023-11-19T11:12:41;0.90;;;0.40;;
20078;SDS011;10199;48.850;8.924;2023-11-19T11:15:10;0.60;;;0.47;;
20078;SDS011;10199;48.850;8.924;2023-11-19T11:17:39;2.83;;;0.80;;
20078;SDS011;10199;48.850;8.924;2023-11-19T11:20:10;1.93;;;0.40;;
20078;SDS011;10199;48.850;8.924;2023-11-19T11:22:42;0.63;;;0.33;;
20078;SDS011;10199;48.850;8.924;2023-11-19T11:25:26;1.47;;;0.30;;
20078;SDS011;10199;48.850;8.924;2023-11-19T11:28:08;1.90;;;0.60;;
20078;SDS011;10199;48.850;8.924;2023-11-19T11:30:53;2.80;;;0.50;;
20078;SDS011;10199;48.850;8.924;2023-11-19T11:33:38;2.07;;;0.60;;
20078;SDS011;10199;48.850;8.924;2023-11-19T11:36:23;1.00;;;0.50;;
20078;SDS011;10199;48.850;8.924;2023-11-19T11:38:52;1.47;;;0.50;;
20078;SDS011;10199;48.850;8.924;2023-11-19T11:41:24;2.33;;;0.60;;
20078;SDS011;10199;48.850;8.924;2023-11-19T11:43:53;1.53;;;0.60;;
20078;SDS011;10199;48.850;8.924;2023-11-19T11:49:27;1.53;;;0.70;;
20078;SDS011;10199;48.850;8.924;2023-11-19T11:52:01;1.40;;;0.50;;
20078;SDS011;10199;48.850;8.924;2023-11-19T11:54:30;1.87;;;0.50;;
20078;SDS011;10199;48.850;8.924;2023-11-19T11:57:10;1.00;;;0.60;;
20078;SDS011;10199;48.850;8.924;2023-11-19T11:59:43;0.90;;;0.50;;
20078;SDS011;10199;48.850;8.924;2023-11-19T12:02:14;1.10;;;0.30;;
20078;SDS011;10199;48.850;8.924;2023-11-19T12:04:46;2.73;;;0.40;;
20078;SDS011;10199;48.850;8.924;2023-11-19T12:07:16;1.00;;;0.47;;
20078;SDS011;10199;48.850;8.924;2023-11-19T12:09:50;1.27;;;0.57;;
20078;SDS011;10199;48.850;8.924;2023-11-19T12:12:22;2.23;;;0.60;;
20078;SDS011;10199;48.850;8.924;2023-11-19T12:15:00;0.63;;;0.30;;
20078;SDS011;10199;48.850;8.924;2023-11-19T12:17:37;2.20;;;0.63;;
20078;SDS011;10199;48.850;8.924;2023-11-19T12:20:11;0.87;;;0.47;;
20078;SDS011;10199;48.850;8.924;2023-11-19T12:22:40;2.00;;;0.50;;
20078;SDS011;10199;48.850;8.924;2023-11-19T12:25:09;0.73;;;0.37;;
20078;SDS011;10199;48.850;8.924;2023-11-19T12:27:41;1.23;;;0.73;;
20078;SDS011;10199;48.850;8.924;2023-11-19T12:30:10;0.60;;;0.40;;
20078;SDS011;10199;48.850;8.924;2023-11-19T12:32:39;1.03;;;0.47;;
20078;SDS011;10199;48.850;8.924;2023-11-19T12:35:07;0.50;;;0.30;;
20078;SDS011;10199;48.850;8.924;2023-11-19T12:37:39;0.90;;;0.40;;
20078;SDS011;10199;48.850;8.924;2023-11-19T12:40:14;0.73;;;0.40;;
20078;SDS011;10199;48.850;8.924;2023-11-19T12:42:45;2.53;;;0.57;;
20078;SDS011;10199;48.850;8.924;2023-11-19T12:45:14;0.93;;;0.30;;
20078;SDS011;10199;48.850;8.924;2023-11-19T12:47:43;1.03;;;0.50;;
20078;SDS011;10199;48.850;8.924;2023-11-19T12:50:14;1.57;;;0.43;;
20078;SDS011;10199;48.850;8.924;2023-11-19T12:52:54;0.80;;;0.30;;
20078;SDS011;10199;48.850;8.924;2023-11-19T12:55:26;1.33;;;0.50;;
20078;SDS011;10199;48.850;8.924;2023-11-19T12:57:57;1.70;;;0.50;;
20078;SDS011;10199;48.850;8.924;2023-11-19T13:00:26;1.00;;;0.50;;
20078;SDS011;10199;48.850;8.924;2023-11-19T13:02:55;1.13;;;0.60;;
20078;SDS011;10199;48.850;8.924;2023-11-19T13:05:25;1.77;;;0.30;;
20078;SDS011;10199;48.850;8.924;2023-11-19T13:07:59;0.40;;;0.40;;
20078;SDS011;10199;48.850;8.924;2023-11-19T13:10:28;0.85;;;0.40;;
20078;SDS011;10199;48.850;8.924;2023-11-19T13:13:05;0.68;;;0.40;;
20078;SDS011;10199;48.850;8.924;2023-11-19T13:15:35;1.17;;;0.50;;
20078;SDS011;10199;48.850;8.924;2023-11-19T13:18:03;3.50;;;0.60;;
20078;SDS011;10199;48.850;8.924;2023-11-19T13:20:31;2.80;;;0.43;;
20078;SDS011;10199;48.850;8.924;2023-11-19T13:23:00;1.40;;;0.50;;
20078;SDS011;10199;48.850;8.924;2023-11-19T13:25:29;1.33;;;0.40;;
20078;SDS011;10199;48.850;8.924;2023-11-19T13:27:58;0.80;;;0.40;;
20078;SDS011;10199;48.850;8.924;2023-11-19T13:30:28;1.17;;;0.40;;
20078;SDS011;10199;48.850;8.924;2023-11-19T13:32:56;1.00;;;0.50;;
20078;SDS011;10199;48.850;8.924;2023-11-19T13:35:25;3.70;;;0.77;;
20078;SDS011;10199;48.850;8.924;2023-11-19T13:37:54;1.60;;;0.53;;
20078;SDS011;10199;48.850;8.924;2023-11-19T13:40:22;0.53;;;0.33;;
20078;SDS011;10199;48.850;8.924;2023-11-19T13:42:51;0.50;;;0.40;;
20078;SDS011;10199;48.850;8.924;2023-11-19T13:45:19;1.60;;;0.50;;
20078;SDS011;10199;48.850;8.924;2023-11-19T13:47:49;0.93;;;0.40;;
20078;SDS011;10199;48.850;8.924;2023-11-19T13:50:17;1.10;;;0.30;;
20078;SDS011;10199;48.850;8.924;2023-11-19T13:52:45;2.07;;;0.90;;
20078;SDS011;10199;48.850;8.924;2023-11-19T13:55:14;1.50;;;0.30;;
20078;SDS011;10199;48.850;8.924;2023-11-19T13:57:42;3.03;;;0.43;;
20078;SDS011;10199;48.850;8.924;2023-11-19T14:00:11;0.93;;;0.30;;
20078;SDS011;10199;48.850;8.924;2023-11-19T14:02:40;1.47;;;0.30;;
20078;SDS011;10199;48.850;8.924;2023-11-19T14:05:10;1.07;;;0.27;;
20078;SDS011;10199;48.850;8.924;2023-11-19T14:07:38;1.03;;;0.50;;
20078;SDS011;10199;48.850;8.924;2023-11-19T14:10:07;0.80;;;0.40;;
20078;SDS011;10199;48.850;8.924;2023-11-19T14:12:36;1.07;;;0.40;;
20078;SDS011;10199;48.850;8.924;2023-11-19T14:15:05;0.93;;;0.40;;
20078;SDS011;10199;48.850;8.924;2023-11-19T14:17:33;0.60;;;0.47;;
20078;SDS011;10199;48.850;8.924;2023-11-19T14:20:01;1.20;;;0.53;;
20078;SDS011;10199;48.850;8.924;2023-11-19T14:22:32;0.43;;;0.40;;
20078;SDS011;10199;48.850;8.924;2023-11-19T14:25:00;1.43;;;0.50;;
20078;SDS011;10199;48.850;8.924;2023-11-19T14:27:28;0.60;;;0.30;;
20078;SDS011;10199;48.850;8.924;2023-11-19T14:29:56;1.63;;;0.30;;
20078;SDS011;10199;48.850;8.924;2023-11-19T14:32:24;3.20;;;0.70;;
20078;SDS011;10199;48.850;8.924;2023-11-19T14:34:52;0.87;;;0.60;;
20078;SDS011;10199;48.850;8.924;2023-11-19T14:37:20;1.13;;;0.70;;
20078;SDS011;10199;48.850;8.924;2023-11-19T14:39:50;1.50;;;0.50;;
20078;SDS011;10199;48.850;8.924;2023-11-19T14:42:18;0.97;;;0.50;;
20078;SDS011;10199;48.850;8.924;2023-11-19T14:44:46;1.07;;;0.50;;
20078;SDS011;10199;48.850;8.924;2023-11-19T14:47:14;1.30;;;0.53;;
20078;SDS011;10199;48.850;8.924;2023-11-19T14:49:42;1.80;;;0.40;;
20078;SDS011;10199;48.850;8.924;2023-11-19T14:52:10;0.40;;;0.37;;
20078;SDS011;10199;48.850;8.924;2023-11-19T14:54:41;1.20;;;0.50;;
20078;SDS011;10199;48.850;8.924;2023-11-19T14:57:10;2.10;;;0.60;;
20078;SDS011;10199;48.850;8.924;2023-11-19T14:59:39;1.70;;;0.50;;
20078;SDS011;10199;48.850;8.924;2023-11-19T15:02:07;0.93;;;0.40;;
20078;SDS011;10199;48.850;8.924;2023-11-19T15:04:36;1.60;;;0.40;;